Time;durP1;ratioP1;P1;durP2;ratioP2;P2;SDS_P1;SDS_P2;PMS_P1;PMS_P2;Temp;Humidity;BMP_temperature;BMP_pressure;BME280_temperature;BME280_humidity;BME280_pressure;Samples;Min_cycle;Max_cycle;Signal;HPM_P1;HPM_P2
2021/01/16 00:03:56;;;;;;;;;;;-1.80;99.90;;;-2.86;88.48;96441.75;10489981;28;2227;-84
2021/01/16 00:08:57;;;;;;;;;;;-1.80;99.90;;;-2.83;88.38;96442.22;10486288;28;2432;-85
2021/01/16 00:13:59;;;;;;;;;;;-0.90;99.90;;;-2.81;88.59;96452.56;10467365;28;2306;-84
2021/01/16 00:19:03;;;;;;;;;;;-1.80;99.90;;;-2.83;88.17;96447.50;10469480;28;2243;-82
2021/01/16 00:24:05;;;;;;;;;;;-1.80;99.90;;;-2.84;88.61;96448.50;10449938;28;2180;-83
2021/01/16 00:29:07;;;;;;;;;;;-1.80;99.90;;;-2.83;88.21;96450.13;10449050;28;2314;-85
2021/01/16 00:34:09;;;;;;;;;;;-1.80;99.90;;;-2.86;88.65;96455.75;10456314;28;2262;-85
2021/01/16 00:39:10;;;;;;;;;;;-0.10;99.90;;;-2.80;88.07;96462.94;10437013;28;2541;-84
2021/01/16 00:44:12;;;;;;;;;;;-1.70;99.90;;;-2.83;88.64;96467.72;10454332;28;2194;-84
2021/01/16 00:49:14;;;;;;;;;;;-1.70;99.90;;;-2.81;88.86;96466.53;10469855;28;2012;-83
2021/01/16 00:54:16;;;;;;;;;;;-1.80;99.90;;;-2.78;88.64;96466.22;10472213;28;1928;-85
2021/01/16 00:59:18;;;;;;;;;;;-1.70;99.90;;;-2.79;88.00;96471.66;10468094;28;2306;-84
2021/01/16 01:04:19;;;;;;;;;;;-1.70;99.90;;;-2.85;88.20;96472.34;10479748;28;2321;-84
2021/01/16 01:09:21;;;;;;;;;;;-1.80;99.90;;;-2.88;88.11;96475.31;10469409;28;2216;-85
2021/01/16 01:14:23;;;;;;;;;;;-0.50;99.90;;;-2.91;87.88;96473.03;10437628;28;2389;-85
2021/01/16 01:19:25;;;;;;;;;;;-1.80;99.90;;;-2.94;88.26;96474.19;10468809;28;2227;-85
2021/01/16 01:24:27;;;;;;;;;;;-1.80;99.90;;;-2.93;88.79;96483.72;10447571;28;2184;-85
2021/01/16 01:29:28;;;;;;;;;;;0.30;99.90;;;-2.95;89.14;96477.81;10466609;28;2294;-83
2021/01/16 01:34:30;;;;;;;;;;;-1.90;99.90;;;-2.85;88.64;96483.69;10447827;28;2193;-84
2021/01/16 01:39:32;;;;;;;;;;;-1.80;99.90;;;-2.85;88.78;96485.50;10464837;28;1948;-84
2021/01/16 01:44:34;;;;;;;;;;;-0.30;99.90;;;-2.82;88.03;96479.88;10451712;28;2178;-85
2021/01/16 01:49:36;;;;;;;;;;;0.20;99.90;;;-2.75;87.65;96475.56;10465893;28;1957;-84
2021/01/16 01:54:38;;;;;;;;;;;-1.70;99.90;;;-2.78;87.92;96471.47;10479180;28;2226;-85
2021/01/16 01:59:40;;;;;;;;;;;-1.70;99.90;;;-2.83;88.64;96476.44;10470685;28;2168;-84
2021/01/16 02:04:42;;;;;;;;;;;-1.70;99.90;;;-2.87;88.44;96469.88;10475645;28;1942;-84
2021/01/16 02:09:44;;;;;;;;;;;-1.80;99.90;;;-2.93;88.57;96473.19;10460781;28;2262;-84
2021/01/16 02:14:46;;;;;;;;;;;-1.80;99.90;;;-2.96;88.69;96478.00;10457913;28;2226;-85
2021/01/16 02:19:48;;;;;;;;;;;-1.80;99.90;;;-2.88;89.05;96473.50;10450121;28;2485;-85
2021/01/16 02:24:49;;;;;;;;;;;-0.30;99.90;;;-2.86;88.02;96457.53;10455076;28;2015;-84
2021/01/16 02:29:51;;;;;;;;;;;-0.60;99.90;;;-2.81;88.47;96471.81;10460987;28;2168;-84
2021/01/16 02:34:53;;;;;;;;;;;-1.70;99.90;;;-2.87;88.28;96469.88;10468462;28;2338;-84
2021/01/16 02:39:55;;;;;;;;;;;-0.70;99.90;;;-2.92;88.00;96474.84;10471919;28;2236;-84
2021/01/16 02:44:56;;;;;;;;;;;-1.80;99.90;;;-2.90;88.47;96472.03;10482410;28;2246;-85
2021/01/16 02:49:58;;;;;;;;;;;-1.90;99.90;;;-2.92;88.46;96469.59;10484220;28;2339;-83
2021/01/16 02:55:00;;;;;;;;;;;-1.90;99.90;;;-2.92;88.32;96464.31;10486707;28;2272;-84
2021/01/16 03:00:05;;;;;;;;;;;-0.40;99.90;;;-2.88;87.73;96465.59;10492819;28;2337;-85
2021/01/16 03:05:06;;;;;;;;;;;-1.20;99.90;;;-2.82;87.80;96461.47;10488997;28;2295;-82
2021/01/16 03:10:08;;;;;;;;;;;-1.80;99.90;;;-2.78;87.62;96468.03;10460456;28;2219;-85
2021/01/16 03:15:10;;;;;;;;;;;-1.80;99.90;;;-2.78;87.29;96465.41;10459732;28;2247;-83
2021/01/16 03:20:12;;;;;;;;;;;-1.80;99.90;;;-2.82;86.92;96469.34;10435928;28;2269;-84
2021/01/16 03:25:13;;;;;;;;;;;-1.80;99.90;;;-2.83;87.48;96467.72;10469492;28;2321;-83
2021/01/16 03:30:15;;;;;;;;;;;-1.30;99.90;;;-2.87;87.44;96466.41;10455658;28;2428;-82
2021/01/16 03:35:17;;;;;;;;;;;-1.80;99.90;;;-2.86;87.85;96471.53;10478788;28;2311;-81
2021/01/16 03:40:26;;;;;;;;;;;-0.30;99.90;;;-2.87;88.07;96469.88;10474766;28;2366;-81
2021/01/16 03:45:29;;;;;;;;;;;-1.80;99.90;;;-2.85;87.89;96469.72;10469101;28;2361;-82
2021/01/16 03:50:31;;;;;;;;;;;-1.80;99.90;;;-2.81;87.92;96463.91;10455206;28;2279;-82
2021/01/16 03:55:33;;;;;;;;;;;-1.80;99.90;;;-2.88;87.74;96468.22;10458177;28;2309;-82
2021/01/16 04:00:35;;;;;;;;;;;-0.50;99.90;;;-2.88;88.54;96467.41;10476573;28;2234;-81
2021/01/16 04:05:37;;;;;;;;;;;-1.80;99.90;;;-2.94;87.96;96465.47;10462558;28;2271;-82
2021/01/16 04:10:39;;;;;;;;;;;-1.80;99.90;;;-2.99;88.17;96460.72;10476047;28;2306;-85
2021/01/16 04:15:41;;;;;;;;;;;-1.90;99.90;;;-2.99;88.50;96463.34;10472125;28;2369;-84
2021/01/16 04:20:43;;;;;;;;;;;-1.60;99.90;;;-3.00;88.41;96459.91;10455377;28;2143;-84
2021/01/16 04:25:45;;;;;;;;;;;-1.90;99.90;;;-2.98;88.65;96474.72;10471568;28;2326;-84
2021/01/16 04:30:46;;;;;;;;;;;-0.40;99.90;;;-2.93;88.27;96465.28;10471173;28;2293;-84
2021/01/16 04:35:48;;;;;;;;;;;-1.10;99.90;;;-2.98;88.43;96467.66;10496956;28;2188;-81
2021/01/16 04:40:50;;;;;;;;;;;-0.70;99.90;;;-2.99;88.31;96465.97;10465445;28;2246;-83
2021/01/16 04:45:52;;;;;;;;;;;-1.90;99.90;;;-3.08;87.94;96467.84;10461119;28;2362;-84
2021/01/16 04:50:56;;;;;;;;;;;-1.40;99.90;;;-3.10;88.83;96466.38;10470594;28;2102;-84
2021/01/16 04:55:57;;;;;;;;;;;-2.00;99.90;;;-3.10;88.13;96469.00;10465401;28;2252;-82
2021/01/16 05:01:00;;;;;;;;;;;-0.60;99.90;;;-3.14;88.75;96462.44;10467891;28;2392;-83
2021/01/16 05:06:05;;;;;;;;;;;-1.90;99.90;;;-3.10;88.47;96467.19;10478127;28;1554;-84
2021/01/16 05:11:07;;;;;;;;;;;-0.10;99.90;;;-3.10;88.27;96463.75;10474935;28;2099;-84
2021/01/16 05:16:09;;;;;;;;;;;-2.00;99.90;;;-3.01;87.92;96463.53;10476804;28;2188;-84
2021/01/16 05:21:10;;;;;;;;;;;-2.10;99.90;;;-2.96;88.38;96473.53;10467866;28;2034;-84
2021/01/16 05:26:12;;;;;;;;;;;-1.30;99.90;;;-2.98;87.91;96480.81;10477295;28;2243;-85
2021/01/16 05:31:14;;;;;;;;;;;-1.30;99.90;;;-2.95;88.06;96475.19;10477450;28;2378;-84
2021/01/16 05:36:16;;;;;;;;;;;-1.90;99.90;;;-3.10;87.82;96482.16;10480654;28;2421;-84
2021/01/16 05:41:18;;;;;;;;;;;-2.00;99.90;;;-3.07;87.53;96489.69;10461075;28;2275;-83
2021/01/16 05:46:19;;;;;;;;;;;-0.70;99.90;;;-3.03;87.75;96483.94;10463117;28;2114;-84
2021/01/16 05:51:21;;;;;;;;;;;-2.00;99.90;;;-3.02;87.54;96488.19;10471365;28;1944;-84
2021/01/16 05:56:23;;;;;;;;;;;-1.50;99.90;;;-3.02;87.79;96484.75;10457037;28;2045;-84
2021/01/16 06:01:25;;;;;;;;;;;-2.00;99.90;;;-3.02;87.04;96477.69;10463152;28;2218;-84
2021/01/16 06:06:27;;;;;;;;;;;-1.90;99.90;;;-3.02;86.87;96479.50;10480705;28;2283;-84
2021/01/16 06:11:28;;;;;;;;;;;-1.90;99.90;;;-2.94;87.19;96479.44;10463228;28;2260;-85
2021/01/16 06:16:30;;;;;;;;;;;-1.90;99.90;;;-3.01;86.41;96484.56;10449556;28;2318;-83
2021/01/16 06:21:32;;;;;;;;;;;-1.90;99.90;;;-3.10;86.25;96482.16;10463080;28;2262;-84
2021/01/16 06:26:34;;;;;;;;;;;-2.00;99.90;;;-3.12;86.36;96478.88;10454727;28;2282;-83
2021/01/16 06:31:36;;;;;;;;;;;-0.30;99.90;;;-3.11;85.86;96472.66;10468141;28;2295;-83
2021/01/16 06:36:39;;;;;;;;;;;-1.40;99.90;;;-3.08;86.12;96474.91;10466602;28;2484;-84
2021/01/16 06:41:40;;;;;;;;;;;-2.00;99.90;;;-3.10;85.84;96479.53;10468440;28;1637;-85
2021/01/16 06:46:42;;;;;;;;;;;-0.60;99.90;;;-3.09;86.17;96483.81;10454863;28;2426;-84
2021/01/16 06:51:44;;;;;;;;;;;-2.10;99.90;;;-3.16;85.49;96485.47;10474318;28;2234;-85
2021/01/16 06:56:46;;;;;;;;;;;-0.70;99.90;;;-3.13;85.71;96478.06;10472378;28;2275;-85
2021/01/16 07:01:49;;;;;;;;;;;-1.10;99.90;;;-3.08;86.38;96491.50;10474569;28;2287;-84
2021/01/16 07:06:52;;;;;;;;;;;-2.10;99.90;;;-3.03;85.33;96483.13;10466847;28;1847;-85
2021/01/16 07:11:53;;;;;;;;;;;-1.90;99.90;;;-3.05;85.11;96485.09;10465165;28;2333;-85
2021/01/16 07:16:55;;;;;;;;;;;-2.00;99.90;;;-3.12;84.72;96489.38;10467734;28;2317;-83
2021/01/16 07:21:57;;;;;;;;;;;-1.00;99.90;;;-3.09;85.01;96489.06;10469502;28;1933;-84
2021/01/16 07:26:59;;;;;;;;;;;-1.20;99.90;;;-3.11;84.79;96491.06;10467960;28;2504;-85
2021/01/16 07:32:03;;;;;;;;;;;-1.20;99.90;;;-2.96;84.73;96494.59;10471741;28;2036;-84
2021/01/16 07:37:21;;;;;;;;;;;-2.00;99.90;;;-2.92;84.47;96493.25;10492672;28;1961;-85
2021/01/16 07:42:23;;;;;;;;;;;-1.80;99.90;;;-2.85;84.82;96502.09;10488120;28;2337;-83
2021/01/16 07:47:25;;;;;;;;;;;-0.20;99.90;;;-2.79;84.36;96498.78;10458238;28;1980;-83
2021/01/16 07:52:27;;;;;;;;;;;-0.30;99.90;;;-2.68;84.81;96502.81;10464934;28;1938;-85
2021/01/16 07:57:29;;;;;;;;;;;-1.70;99.90;;;-2.61;82.84;96509.06;10449498;28;1968;-84
2021/01/16 08:02:30;;;;;;;;;;;-1.60;99.90;;;-2.65;82.70;96506.94;10451636;28;2417;-86
2021/01/16 08:07:33;;;;;;;;;;;-1.60;99.90;;;-2.61;81.84;96510.84;10466701;28;2534;-85
2021/01/16 08:12:34;;;;;;;;;;;-1.60;99.90;;;-2.61;80.50;96508.22;10470500;28;1663;-83
2021/01/16 08:17:36;;;;;;;;;;;-1.60;99.90;;;-2.48;80.65;96490.06;10483219;28;2034;-83
2021/01/16 08:22:39;;;;;;;;;;;-1.50;99.90;;;-2.32;80.21;96486.47;10471878;28;2241;-84
2021/01/16 08:27:45;;;;;;;;;;;-1.40;99.90;;;-2.31;78.91;96481.03;10448576;28;2464;-84
2021/01/16 08:32:47;;;;;;;;;;;-0.40;99.90;;;-2.19;78.44;96495.44;10474843;28;2382;-82
2021/01/16 08:37:49;;;;;;;;;;;-0.20;99.90;;;-2.30;78.87;96498.47;10467121;28;2334;-83
2021/01/16 08:42:51;;;;;;;;;;;0.20;99.90;;;-2.28;80.12;96496.50;10439047;28;2324;-82
2021/01/16 08:47:53;;;;;;;;;;;-1.30;99.90;;;-2.31;80.61;96491.56;10444404;28;2223;-84
2021/01/16 08:52:55;;;;;;;;;;;0.90;99.90;;;-2.11;79.86;96496.38;10451618;28;2258;-83
2021/01/16 08:57:56;;;;;;;;;;;-1.20;99.90;;;-2.08;79.05;96485.50;10467644;28;2209;-84
2021/01/16 09:02:58;;;;;;;;;;;-1.20;99.90;;;-1.94;78.51;96495.25;10485234;28;2465;-84
2021/01/16 09:08:00;;;;;;;;;;;0.40;99.90;;;-1.95;77.75;96494.44;10492277;28;2322;-84
2021/01/16 09:13:05;;;;;;;;;;;-1.00;99.90;;;-1.75;77.84;96496.56;10457218;28;2439;-83
2021/01/16 09:18:06;;;;;;;;;;;0.40;99.90;;;-1.67;76.69;96491.22;10469881;28;2330;-85
2021/01/16 09:23:09;;;;;;;;;;;-0.70;99.90;;;-1.49;76.66;96496.16;10484895;28;2226;-83
2021/01/16 09:28:11;;;;;;;;;;;-0.20;99.90;;;-1.34;75.06;96501.41;10489148;28;2262;-83
2021/01/16 09:33:12;;;;;;;;;;;1.80;99.90;;;-1.34;74.36;96501.41;10465196;28;2317;-84
2021/01/16 09:38:14;;;;;;;;;;;-0.40;99.90;;;-1.43;73.99;96503.34;10447733;28;2280;-84
2021/01/16 09:43:16;;;;;;;;;;;-0.20;99.90;;;-1.60;74.25;96504.47;10470589;28;2160;-84
2021/01/16 09:48:18;;;;;;;;;;;1.30;99.90;;;-1.55;74.95;96500.31;10466499;28;2401;-85
2021/01/16 09:53:20;;;;;;;;;;;0.10;99.90;;;-1.22;74.93;96494.69;10464124;28;2286;-85
2021/01/16 09:58:22;;;;;;;;;;;0.40;99.90;;;-1.17;73.31;96482.59;10472012;28;2455;-81
2021/01/16 10:03:24;;;;;;;;;;;1.10;99.90;;;-1.05;73.59;96479.50;10468332;28;2070;-82
2021/01/16 10:08:26;;;;;;;;;;;0.20;99.90;;;-1.04;74.97;96470.56;10465917;28;2429;-85
2021/01/16 10:13:28;;;;;;;;;;;1.20;99.90;;;-0.96;74.10;96467.84;10476521;28;2210;-83
2021/01/16 10:18:30;;;;;;;;;;;-0.10;99.90;;;-0.86;73.33;96458.63;10471423;28;1902;-85
2021/01/16 10:23:32;;;;;;;;;;;0.00;99.90;;;-1.16;73.99;96449.13;10491637;28;2330;-83
2021/01/16 10:28:34;;;;;;;;;;;-0.10;99.90;;;-1.21;74.28;96439.13;10482488;28;2248;-83
2021/01/16 10:33:36;;;;;;;;;;;-0.30;99.90;;;-0.91;72.43;96436.44;10470527;28;2250;-86
2021/01/16 10:38:38;;;;;;;;;;;-0.10;99.90;;;-0.86;72.72;96429.59;10481607;28;2363;-86
2021/01/16 10:43:40;;;;;;;;;;;0.10;99.90;;;-1.00;72.81;96413.81;10471510;28;2271;-84
2021/01/16 10:48:42;;;;;;;;;;;0.00;99.90;;;-0.52;72.30;96416.75;10445044;28;1670;-84
2021/01/16 10:53:46;;;;;;;;;;;0.70;99.90;;;-0.55;71.68;96412.66;10471747;28;2295;-82
2021/01/16 10:58:48;;;;;;;;;;;0.50;99.90;;;-0.70;72.02;96410.09;10479201;28;2063;-83
2021/01/16 11:03:50;;;;;;;;;;;0.80;99.90;;;-0.69;72.51;96401.16;10487917;28;2219;-81
2021/01/16 11:08:52;;;;;;;;;;;0.20;99.90;;;-0.88;72.59;96394.66;10495950;28;2402;-81
2021/01/16 11:13:54;;;;;;;;;;;0.00;99.90;;;-0.80;73.13;96399.00;10491085;28;2263;-81
2021/01/16 11:18:56;;;;;;;;;;;0.10;99.90;;;-1.05;75.17;96390.59;10482672;28;2251;-85
2021/01/16 11:23:57;;;;;;;;;;;0.00;99.90;;;-1.01;75.36;96386.59;10475285;28;2168;-82
2021/01/16 11:28:59;;;;;;;;;;;0.40;99.90;;;-0.91;73.48;96373.09;10487239;28;2366;-84
2021/01/16 11:34:03;;;;;;;;;;;0.00;99.90;;;-1.23;72.73;96383.09;10485929;28;2306;-85
2021/01/16 11:39:05;;;;;;;;;;;1.50;99.90;;;-0.99;70.64;96360.03;10472669;28;2362;-82
2021/01/16 11:44:07;;;;;;;;;;;0.10;99.90;;;-1.02;71.60;96363.81;10491759;28;2350;-83
2021/01/16 11:49:08;;;;;;;;;;;-0.10;99.90;;;-0.61;72.05;96348.22;10469390;28;2264;-84
2021/01/16 11:54:10;;;;;;;;;;;1.90;99.90;;;-0.62;71.14;96338.66;10469964;28;2378;-83
2021/01/16 11:59:12;;;;;;;;;;;0.30;99.90;;;-0.77;72.67;96329.16;10465649;28;2180;-82
2021/01/16 12:04:14;;;;;;;;;;;1.90;99.90;;;-0.58;72.56;96334.63;10472530;28;2318;-83
2021/01/16 12:09:16;;;;;;;;;;;0.40;99.90;;;-0.80;71.77;96324.28;10461169;28;2324;-85
2021/01/16 12:14:17;;;;;;;;;;;0.50;99.90;;;-0.76;73.32;96317.59;10462331;28;2247;-84
2021/01/16 12:19:19;;;;;;;;;;;0.70;99.90;;;-0.57;74.47;96309.88;10457298;28;2435;-81
2021/01/16 12:24:21;;;;;;;;;;;1.50;99.90;;;-0.53;70.33;96299.72;10483082;28;2160;-86
2021/01/16 12:29:24;;;;;;;;;;;0.50;99.90;;;-0.92;70.12;96294.91;10449335;28;2122;-82
2021/01/16 12:34:27;;;;;;;;;;;1.10;99.90;;;-0.95;70.78;96290.03;10438066;28;2236;-82
2021/01/16 12:39:29;;;;;;;;;;;-0.10;99.90;;;-0.63;70.95;96286.88;10463257;28;2239;-85
2021/01/16 12:44:36;;;;;;;;;;;0.20;99.90;;;-0.42;69.26;96266.69;10457085;28;2146;-83
2021/01/16 12:49:39;;;;;;;;;;;1.10;99.90;;;-0.15;67.93;96255.28;10461750;28;2306;-82
2021/01/16 12:54:47;;;;;;;;;;;1.50;99.90;;;-0.72;66.29;96253.66;10462722;28;2451;-83
2021/01/16 12:59:49;;;;;;;;;;;2.90;99.90;;;-0.04;69.11;96251.28;10455148;28;2255;-85
2021/01/16 13:04:51;;;;;;;;;;;0.40;99.90;;;1.15;64.13;96234.94;10465358;28;2522;-81
2021/01/16 13:09:53;;;;;;;;;;;1.70;98.60;;;-0.10;64.07;96247.59;10454191;28;1873;-83
2021/01/16 13:14:57;;;;;;;;;;;3.10;95.50;;;-0.44;64.38;96229.09;10464443;28;2536;-83
2021/01/16 13:20:26;;;;;;;;;;;0.70;94.80;;;-0.88;67.32;96217.00;10478621;28;2274;-82
2021/01/16 13:25:33;;;;;;;;;;;0.90;96.90;;;-1.22;66.84;96209.81;10475592;28;2252;-84
2021/01/16 13:30:35;;;;;;;;;;;1.20;97.50;;;-1.11;68.24;96210.13;10468171;28;2270;-84
2021/01/16 13:35:38;;;;;;;;;;;1.30;98.90;;;-1.41;67.17;96211.25;10460258;28;2299;-82
2021/01/16 13:40:40;;;;;;;;;;;1.60;97.70;;;-1.86;69.39;96205.28;10464424;28;2219;-83
2021/01/16 13:45:42;;;;;;;;;;;-0.30;98.00;;;-2.02;69.66;96218.69;10470104;28;2200;-85
2021/01/16 13:50:44;;;;;;;;;;;1.00;99.40;;;-2.05;70.32;96206.69;10471257;28;1980;-84
2021/01/16 13:55:48;;;;;;;;;;;0.40;99.80;;;-2.09;70.20;96199.38;10469299;28;2155;-82
2021/01/16 14:00:51;;;;;;;;;;;-1.10;99.30;;;-2.21;70.57;96202.47;10468827;28;2406;-80
2021/01/16 14:05:53;;;;;;;;;;;0.10;99.90;;;-2.22;70.51;96206.09;10432628;28;1905;-83
2021/01/16 14:10:55;;;;;;;;;;;-1.10;99.90;;;-2.24;71.12;96194.91;10473268;28;2409;-81
2021/01/16 14:15:57;;;;;;;;;;;-1.10;99.90;;;-2.21;69.64;96184.03;10465362;28;2222;-84
2021/01/16 14:20:59;;;;;;;;;;;0.80;99.90;;;-2.27;70.77;96197.91;10467032;28;2369;-85
2021/01/16 14:26:06;;;;;;;;;;;-1.30;99.90;;;-2.24;70.51;96194.91;10474666;28;2011;-82
2021/01/16 14:31:08;;;;;;;;;;;0.40;99.90;;;-2.30;69.79;96200.09;10488688;28;2381;-82
2021/01/16 14:36:12;;;;;;;;;;;-0.20;99.90;;;-2.38;70.50;96195.75;10464348;28;2256;-82
2021/01/16 14:41:18;;;;;;;;;;;0.00;99.90;;;-2.43;71.48;96192.84;10466222;28;2696;-82
2021/01/16 14:52:05;;;;;;;;;;;0.10;99.90;;;-2.46;71.56;96190.56;10448300;28;2184;-83
2021/01/16 15:08:52;;;;;;;;;;;-1.40;99.90;;;-2.56;71.31;96177.69;10448380;28;2316;-84
2021/01/16 15:19:41;;;;;;;;;;;0.80;99.90;;;-2.68;71.53;96186.22;10441959;28;2438;-84
2021/01/16 15:25:10;;;;;;;;;;;0.00;99.90;;;-2.79;71.88;96183.03;10455785;28;2375;-83
2021/01/16 15:30:36;;;;;;;;;;;-1.20;99.90;;;-2.92;72.60;96185.47;10471575;28;2348;-83
2021/01/16 15:41:38;;;;;;;;;;;-1.70;99.90;;;-3.09;72.83;96184.81;10460710;28;2138;-84
2021/01/16 15:47:32;;;;;;;;;;;-1.00;99.90;;;-3.21;73.66;96173.06;10445592;28;2240;-82
2021/01/16 15:53:12;;;;;;;;;;;-0.40;99.90;;;-3.32;74.78;96189.28;10458813;28;2255;-84
2021/01/16 16:34:11;;;;;;;;;;;-1.90;99.90;;;-2.68;73.93;96175.69;10440014;28;1545;-82
2021/01/16 16:40:35;;;;;;;;;;;-0.30;99.90;;;-2.67;74.13;96178.16;10441751;28;1918;-85
2021/01/16 16:46:35;;;;;;;;;;;-1.60;99.90;;;-2.67;74.63;96178.16;10215155;29;1452;-86
2021/01/16 16:51:40;;;;;;;;;;;-0.10;99.90;;;-2.70;74.42;96180.31;10220370;29;1702;-86
2021/01/16 16:56:44;;;;;;;;;;;-1.60;99.90;;;-2.73;75.13;96174.44;10288440;28;1906;-87
2021/01/16 17:01:52;;;;;;;;;;;-1.60;99.90;;;-2.79;75.04;96177.78;10318092;28;1659;-81
2021/01/16 17:07:12;;;;;;;;;;;-0.10;99.90;;;-2.94;76.00;96176.13;10297732;28;1597;-85
2021/01/16 17:12:36;;;;;;;;;;;;;;;;;;;;;
2021/01/16 17:17:48;;;;;;;;;;;-1.80;99.90;;;-3.05;76.96;96165.06;10326118;28;1899;-86
2021/01/16 17:22:56;;;;;;;;;;;-0.30;99.90;;;-3.06;76.89;96165.22;10422583;28;1530;-85
2021/01/16 17:28:06;;;;;;;;;;;-0.80;99.90;;;-3.04;76.54;96165.88;10430515;28;1819;-86
2021/01/16 17:33:12;;;;;;;;;;;-0.70;99.90;;;-3.08;76.17;96152.25;10423487;28;1566;-86
2021/01/16 17:38:33;;;;;;;;;;;-1.90;99.90;;;-3.21;76.96;96156.50;10446314;28;1883;-87
2021/01/16 17:44:12;;;;;;;;;;;-0.50;99.90;;;-3.34;77.03;96160.53;10314913;28;1590;-86
2021/01/16 17:49:15;;;;;;;;;;;-2.10;99.90;;;-3.34;77.31;96151.84;10312820;28;1755;-86
2021/01/16 17:54:21;;;;;;;;;;;-2.30;99.90;;;-3.33;77.88;96156.09;10438783;28;1670;-88
2021/01/16 17:59:31;;;;;;;;;;;-2.10;99.90;;;-3.37;78.02;96149.53;10428641;28;1898;-87
2021/01/16 18:04:45;;;;;;;;;;;-0.60;99.90;;;-3.32;77.67;96148.03;10443029;28;1551;-86
2021/01/16 18:09:55;;;;;;;;;;;-2.20;99.90;;;-3.34;77.80;96157.91;10434548;28;1484;-87
2021/01/16 18:15:08;;;;;;;;;;;-0.70;99.90;;;-3.30;78.01;96153.94;10423479;28;1745;-87
2021/01/16 18:20:17;;;;;;;;;;;-0.50;99.90;;;-3.27;77.48;96150.13;10458153;28;1898;-87
2021/01/16 18:25:27;;;;;;;;;;;-1.50;99.90;;;-3.29;77.61;96147.69;10434196;28;1540;-85
2021/01/16 18:30:45;;;;;;;;;;;-1.20;99.90;;;-3.31;77.69;96149.69;10444257;28;1506;-86
2021/01/16 18:35:53;;;;;;;;;;;-2.10;99.90;;;-3.38;77.70;96154.00;10432394;28;1272;-85
2021/01/16 18:41:00;;;;;;;;;;;-1.00;99.90;;;-3.33;77.97;96141.13;10434200;28;1962;-86
2021/01/16 18:46:06;;;;;;;;;;;-1.10;99.90;;;-3.42;77.93;96139.59;10437627;28;1163;-85
2021/01/16 18:51:12;;;;;;;;;;;-0.90;99.90;;;-3.45;78.01;96139.09;10447759;28;1530;-87
2021/01/16 18:56:19;;;;;;;;;;;-2.40;99.90;;;-3.43;78.05;96130.06;10421678;28;2031;-87
2021/01/16 19:01:27;;;;;;;;;;;-1.00;99.90;;;-3.42;78.24;96130.88;10435297;28;2210;-86
2021/01/16 19:06:30;;;;;;;;;;;-1.10;99.90;;;-3.43;78.24;96119.56;10418562;28;1951;-88
2021/01/16 19:11:37;;;;;;;;;;;-1.50;99.90;;;-3.53;77.81;96116.34;10424567;28;2291;-87
2021/01/16 19:16:43;;;;;;;;;;;-1.30;99.90;;;-3.57;78.15;96120.31;10411858;28;2488;-88
2021/01/16 19:21:56;;;;;;;;;;;-0.70;99.90;;;-3.96;78.17;96116.00;10423670;28;2328;-86
2021/01/16 19:26:59;;;;;;;;;;;-1.00;99.90;;;-4.14;79.45;96115.47;10416354;28;2248;-88
2021/01/16 19:32:04;;;;;;;;;;;-2.40;99.90;;;-4.23;80.11;96117.34;10418270;28;2182;-85
2021/01/16 19:37:09;;;;;;;;;;;-1.90;99.90;;;-4.36;80.94;96110.03;10416286;28;1917;-86
2021/01/16 19:42:35;;;;;;;;;;;-3.30;99.90;;;-4.42;81.26;96105.47;10438705;28;2211;-85
2021/01/16 19:47:43;;;;;;;;;;;-0.90;99.90;;;-4.56;81.48;96100.16;10427240;28;2307;-84
2021/01/16 19:52:57;;;;;;;;;;;-3.40;99.90;;;-4.58;81.89;96095.06;10432250;28;2489;-86
2021/01/16 19:58:21;;;;;;;;;;;-3.60;99.90;;;-4.58;81.99;96084.59;10427196;28;1930;-85
2021/01/16 20:15:52;;;;;;;;;;;-2.10;99.90;;;-4.76;81.98;96069.09;10366557;28;2133;-89
2021/01/16 20:50:44;;;;;;;;;;;-2.20;99.90;;;-4.93;82.15;96042.09;10251232;28;2355;-86
2021/01/16 20:55:49;;;;;;;;;;;-3.70;99.90;;;-4.93;81.64;96036.88;10252380;29;1598;-82
2021/01/16 21:01:00;;;;;;;;;;;-3.80;99.90;;;-4.94;82.26;96022.13;10272415;28;2257;-85
2021/01/16 21:06:05;;;;;;;;;;;-3.50;99.90;;;-4.93;81.54;96017.69;10266507;28;2025;-86
2021/01/16 21:11:07;;;;;;;;;;;-2.90;99.90;;;-4.85;82.33;96001.09;10271701;28;2306;-84
2021/01/16 21:16:09;;;;;;;;;;;-3.70;99.90;;;-4.84;81.84;96002.72;10290450;28;2417;-84
2021/01/16 21:21:11;;;;;;;;;;;-3.70;99.90;;;-4.87;81.43;95989.97;10327627;28;2095;-87
2021/01/16 21:26:14;;;;;;;;;;;-2.10;99.90;;;-4.90;81.19;95991.13;10346697;28;1693;-85
2021/01/16 21:31:16;;;;;;;;;;;-2.80;99.90;;;-4.86;81.78;95987.19;10367453;28;2273;-84
2021/01/16 21:36:19;;;;;;;;;;;-1.90;99.90;;;-4.86;81.42;95996.84;10356864;28;2258;-85
2021/01/16 21:41:21;;;;;;;;;;;-1.60;99.90;;;-4.87;81.61;95990.78;10366759;28;1966;-84
2021/01/16 21:46:24;;;;;;;;;;;-3.60;99.90;;;-4.88;80.11;95972.63;10353897;28;1759;-86
2021/01/16 21:51:26;;;;;;;;;;;-2.10;99.90;;;-4.85;80.80;95975.69;10353202;28;2092;-87
2021/01/16 21:56:28;;;;;;;;;;;-2.80;99.90;;;-4.78;80.83;95970.56;10344112;28;2207;-86
2021/01/16 22:01:30;;;;;;;;;;;-3.70;99.90;;;-4.77;80.39;95961.72;10360384;28;2119;-84
2021/01/16 22:06:32;;;;;;;;;;;-3.70;99.90;;;-4.76;80.72;95958.13;10370758;28;2340;-85
2021/01/16 22:11:35;;;;;;;;;;;-3.10;99.90;;;-4.77;80.45;95951.22;10372253;28;2229;-86
2021/01/16 22:16:37;;;;;;;;;;;-2.10;99.90;;;-4.75;80.53;95939.59;10381109;28;2147;-86
2021/01/16 22:21:39;;;;;;;;;;;-3.00;99.90;;;-4.71;80.06;95942.66;10368757;28;2290;-85
2021/01/16 22:26:41;;;;;;;;;;;-3.60;99.90;;;-4.70;80.09;95937.25;10354307;28;2314;-87
2021/01/16 22:31:43;;;;;;;;;;;-2.50;99.90;;;-4.61;80.17;95940.63;10372899;28;1268;-85
2021/01/16 22:36:45;;;;;;;;;;;-3.50;99.90;;;-4.64;79.83;95933.94;10369436;28;1887;-85
2021/01/16 22:41:47;;;;;;;;;;;-3.50;99.90;;;-4.60;80.04;95926.50;10368057;28;1268;-85
2021/01/16 22:46:49;;;;;;;;;;;-2.50;99.90;;;-4.58;79.54;95921.09;10366215;28;2370;-85
2021/01/16 22:51:51;;;;;;;;;;;-3.50;99.90;;;-4.54;79.05;95917.94;10357538;28;2207;-84
2021/01/16 22:56:53;;;;;;;;;;;-3.00;99.90;;;-4.56;79.48;95904.19;10339766;28;2374;-85
2021/01/16 23:01:54;;;;;;;;;;;-3.50;99.90;;;-4.57;79.57;95893.88;10353691;28;1998;-86
2021/01/16 23:06:57;;;;;;;;;;;-3.40;99.90;;;-4.58;79.64;95879.97;10383502;28;1795;-85
2021/01/16 23:11:59;;;;;;;;;;;-3.40;99.90;;;-4.55;79.18;95884.03;10377776;28;2002;-84
2021/01/16 23:17:03;;;;;;;;;;;-3.40;99.90;;;-4.51;79.57;95873.00;10379299;28;1895;-83
2021/01/16 23:22:06;;;;;;;;;;;-3.40;99.90;;;-4.55;79.52;95873.53;10379533;28;1546;-84
2021/01/16 23:27:07;;;;;;;;;;;-2.10;99.90;;;-4.56;80.34;95864.84;10352729;28;2275;-85
2021/01/16 23:32:09;;;;;;;;;;;-3.40;99.90;;;-4.61;80.71;95851.44;10358994;28;1232;-88
2021/01/16 23:37:12;;;;;;;;;;;-3.40;99.90;;;-4.64;80.38;95857.06;10334035;28;2101;-87
2021/01/16 23:42:14;;;;;;;;;;;-3.50;99.90;;;-4.63;80.77;95849.00;10361706;28;2171;-88
2021/01/16 23:47:16;;;;;;;;;;;-2.50;99.90;;;-4.59;80.52;95843.38;10364932;28;2326;-88
2021/01/16 23:52:18;;;;;;;;;;;-3.50;99.90;;;-4.59;80.81;95833.72;10383962;28;2344;-88
2021/01/16 23:57:20;;;;;;;;;;;-3.50;99.90;;;-4.52;80.81;95818.88;10342333;28;2025;-88
